createdAt,value
2022-10-07T00:00:51.449Z,10.37
2022-10-07T00:03:19.889Z,10.34
2022-10-07T00:05:59.798Z,10.31
2022-10-07T00:08:27.492Z,10.31
2022-10-07T00:10:55.142Z,10.31
2022-10-07T00:13:22.865Z,10.33
2022-10-07T00:15:50.487Z,10.33
2022-10-07T00:18:18.189Z,10.28
2022-10-07T00:20:45.865Z,10.26
2022-10-07T00:23:17.845Z,10.17
2022-10-07T00:25:45.540Z,10.16
2022-10-07T00:28:13.256Z,10.15
2022-10-07T00:30:40.928Z,10.13
2022-10-07T00:33:08.651Z,10.08
2022-10-07T00:35:36.782Z,10.03
2022-10-07T00:38:06.274Z,10.02
2022-10-07T00:40:35.292Z,10.00
2022-10-07T00:43:21.409Z,9.89
2022-10-07T00:45:49.617Z,9.77
2022-10-07T00:48:24.646Z,9.73
2022-10-07T00:50:54.691Z,9.62
2022-10-07T00:53:26.460Z,9.59
2022-10-07T00:55:57.720Z,9.54
2022-10-07T00:58:26.330Z,9.52
2022-10-07T01:00:54.051Z,9.47
2022-10-07T01:03:22.103Z,9.52
2022-10-07T01:05:51.112Z,9.55
2022-10-07T01:08:19.303Z,9.58
2022-10-07T01:10:55.609Z,9.60
2022-10-07T01:13:32.027Z,9.63
2022-10-07T01:16:07.372Z,9.64
2022-10-07T01:18:42.231Z,9.68
2022-10-07T01:21:21.260Z,9.69
2022-10-07T01:24:09.572Z,9.68
2022-10-07T01:26:49.503Z,9.73
2022-10-07T01:29:23.627Z,9.69
2022-10-07T01:31:58.596Z,9.68
2022-10-07T01:34:27.617Z,9.64
2022-10-07T01:36:59.056Z,9.61
2022-10-07T01:39:32.787Z,9.60
2022-10-07T01:42:01.921Z,9.58
2022-10-07T01:44:31.109Z,9.60
2022-10-07T01:46:59.746Z,9.58
2022-10-07T01:49:27.635Z,9.59
2022-10-07T01:52:16.660Z,9.56
2022-10-07T01:55:08.146Z,9.49
2022-10-07T01:57:47.349Z,9.44
2022-10-07T02:00:17.133Z,9.40
2022-10-07T02:03:21.338Z,9.45
2022-10-07T02:05:52.798Z,9.44
2022-10-07T02:08:31.041Z,9.48
2022-10-07T02:11:13.907Z,9.53
2022-10-07T02:13:55.853Z,9.61
2022-10-07T02:16:33.275Z,9.68
2022-10-07T02:19:05.485Z,9.71
2022-10-07T02:21:35.808Z,9.76
2022-10-07T02:24:05.308Z,9.81
2022-10-07T02:26:35.064Z,9.85
2022-10-07T02:29:08.617Z,9.87
2022-10-07T02:31:41.650Z,9.92
2022-10-07T02:34:15.170Z,9.97
2022-10-07T02:36:51.988Z,10.02
2022-10-07T02:39:19.780Z,10.05
2022-10-07T02:41:52.107Z,10.08
2022-10-07T02:44:32.011Z,10.12
2022-10-07T02:47:07.085Z,10.13
2022-10-07T02:49:38.951Z,10.16
2022-10-07T02:52:10.228Z,10.16
2022-10-07T02:54:42.667Z,10.21
2022-10-07T02:57:13.768Z,10.21
2022-10-07T02:59:45.525Z,10.24
2022-10-07T03:02:21.131Z,10.26
2022-10-07T03:04:49.716Z,10.26
2022-10-07T03:07:17.592Z,10.27
2022-10-07T03:09:45.410Z,10.29
2022-10-07T03:12:13.831Z,10.31
2022-10-07T03:14:44.805Z,10.32
2022-10-07T03:17:12.565Z,10.34
2022-10-07T03:19:40.378Z,10.35
2022-10-07T03:22:08.580Z,10.38
2022-10-07T03:24:38.395Z,10.40
2022-10-07T03:27:07.204Z,10.41
2022-10-07T03:29:35.544Z,10.42
2022-10-07T03:32:05.846Z,10.44
2022-10-07T03:34:34.505Z,10.45
2022-10-07T03:37:02.792Z,10.47
2022-10-07T03:39:30.596Z,10.48
2022-10-07T03:41:58.395Z,10.50
2022-10-07T03:44:26.309Z,10.50
2022-10-07T03:46:55.870Z,10.51
2022-10-07T03:49:27.634Z,10.54
2022-10-07T03:51:56.094Z,10.55
2022-10-07T03:54:23.932Z,10.56
2022-10-07T03:56:52.084Z,10.57
2022-10-07T03:59:19.789Z,10.59
2022-10-07T04:01:48.185Z,10.60
2022-10-07T04:04:15.944Z,10.61
2022-10-07T04:06:45.951Z,10.62
2022-10-07T04:09:15.763Z,10.63
2022-10-07T04:11:44.362Z,10.64
2022-10-07T04:14:12.952Z,10.64
2022-10-07T04:16:41.926Z,10.65
2022-10-07T04:19:12.039Z,10.66
2022-10-07T04:21:39.787Z,10.67
2022-10-07T04:24:08.951Z,10.67
2022-10-07T04:26:38.029Z,10.66
2022-10-07T04:29:05.804Z,10.66
2022-10-07T04:31:33.885Z,10.67
2022-10-07T04:34:05.914Z,10.67
2022-10-07T04:36:37.258Z,10.68
2022-10-07T04:39:11.944Z,10.66
2022-10-07T04:41:44.387Z,10.67
2022-10-07T04:44:20.140Z,10.68
2022-10-07T04:46:56.467Z,10.69
2022-10-07T04:49:26.996Z,10.68
2022-10-07T04:51:56.649Z,10.69
2022-10-07T04:54:28.309Z,10.69
2022-10-07T04:56:56.987Z,10.70
2022-10-07T04:59:29.809Z,10.72
2022-10-07T05:01:58.393Z,10.71
2022-10-07T05:04:27.663Z,10.72
2022-10-07T05:06:55.979Z,10.73
2022-10-07T05:09:24.991Z,10.73
2022-10-07T05:11:55.560Z,10.72
2022-10-07T05:14:24.126Z,10.73
2022-10-07T05:16:53.933Z,10.75
2022-10-07T05:19:24.123Z,10.74
2022-10-07T05:21:51.864Z,10.76
2022-10-07T05:24:20.065Z,10.77
2022-10-07T05:26:48.856Z,10.78
2022-10-07T05:29:19.487Z,10.77
2022-10-07T05:31:51.056Z,10.77
2022-10-07T05:34:23.310Z,10.79
2022-10-07T05:36:51.084Z,10.80
2022-10-07T05:39:18.831Z,10.79
2022-10-07T05:42:00.291Z,10.80
2022-10-07T05:44:37.657Z,10.82
2022-10-07T05:47:06.560Z,10.82
2022-10-07T05:49:35.914Z,10.84
2022-10-07T05:52:04.090Z,10.85
2022-10-07T05:54:33.258Z,10.87
2022-10-07T05:57:01.671Z,10.86
2022-10-07T05:59:30.996Z,10.90
2022-10-07T06:02:00.907Z,10.91
2022-10-07T06:04:29.570Z,10.95
2022-10-07T06:06:57.410Z,10.98
2022-10-07T06:09:57.124Z,11.02
2022-10-07T06:12:42.526Z,11.06
2022-10-07T06:15:13.947Z,11.08
2022-10-07T06:17:47.039Z,11.14
2022-10-07T06:20:18.402Z,11.17
2022-10-07T06:22:46.961Z,11.21
2022-10-07T06:25:16.595Z,11.23
2022-10-07T06:27:47.413Z,11.28
2022-10-07T06:30:19.132Z,11.34
2022-10-07T06:32:48.500Z,11.38
2022-10-07T06:35:16.283Z,11.41
2022-10-07T06:37:44.338Z,11.46
2022-10-07T06:40:12.664Z,11.48
2022-10-07T06:42:40.885Z,11.56
2022-10-07T06:45:28.127Z,11.61
2022-10-07T06:48:00.944Z,11.69
2022-10-07T06:50:29.560Z,11.69
2022-10-07T06:52:57.956Z,11.71
2022-10-07T06:55:27.851Z,11.75
2022-10-07T06:57:55.563Z,11.82
2022-10-07T07:00:23.343Z,11.91
2022-10-07T07:02:51.184Z,12.01
2022-10-07T07:05:20.547Z,12.06
2022-10-07T07:07:49.500Z,12.10
2022-10-07T07:10:17.875Z,12.17
2022-10-07T07:12:49.389Z,12.31
2022-10-07T07:15:18.160Z,12.28
2022-10-07T07:17:46.244Z,12.25
2022-10-07T07:20:14.808Z,12.29
2022-10-07T07:22:44.407Z,12.34
2022-10-07T07:25:12.678Z,12.38
2022-10-07T07:27:41.136Z,12.40
2022-10-07T07:30:11.673Z,12.45
2022-10-07T07:32:39.860Z,12.54
2022-10-07T07:35:09.086Z,12.52
2022-10-07T07:37:37.155Z,12.63
2022-10-07T07:40:07.186Z,12.66
2022-10-07T07:42:35.305Z,12.68
2022-10-07T07:45:03.567Z,12.71
2022-10-07T07:47:32.771Z,12.75
2022-10-07T07:50:01.408Z,12.81
2022-10-07T07:52:32.832Z,12.89
2022-10-07T07:55:03.092Z,12.98
2022-10-07T07:57:33.135Z,13.07
2022-10-07T08:00:07.411Z,13.25
2022-10-07T08:02:41.893Z,13.32
2022-10-07T08:05:13.466Z,13.41
2022-10-07T08:07:41.563Z,13.46
2022-10-07T08:10:11.371Z,13.59
2022-10-07T08:12:41.089Z,13.71
2022-10-07T08:15:10.768Z,13.84
2022-10-07T08:17:39.014Z,13.97
2022-10-07T08:20:10.543Z,14.10
2022-10-07T08:22:38.668Z,14.19
2022-10-07T08:25:07.514Z,14.34
2022-10-07T08:27:35.911Z,14.47
2022-10-07T08:30:07.059Z,14.63
2022-10-07T08:32:35.041Z,14.80
2022-10-07T08:35:06.903Z,14.94
2022-10-07T08:37:34.600Z,15.08
2022-10-07T08:40:02.455Z,15.19
2022-10-07T08:42:35.913Z,15.29
2022-10-07T08:45:08.484Z,15.41
2022-10-07T08:47:40.200Z,15.50
2022-10-07T08:50:18.959Z,15.63
2022-10-07T08:52:51.200Z,15.66
2022-10-07T08:55:24.731Z,15.80
2022-10-07T08:58:19.620Z,15.93
2022-10-07T09:00:56.686Z,16.08
2022-10-07T09:03:35.789Z,16.22
2022-10-07T09:06:10.667Z,16.38
2022-10-07T09:08:43.492Z,16.47
2022-10-07T09:11:16.624Z,16.61
2022-10-07T09:13:48.979Z,16.70
2022-10-07T09:16:24.035Z,16.74
2022-10-07T09:18:54.314Z,16.73
2022-10-07T09:21:25.439Z,16.82
2022-10-07T09:23:57.353Z,16.94
2022-10-07T09:26:27.510Z,17.08
2022-10-07T09:28:55.451Z,17.13
2022-10-07T09:31:26.107Z,17.15
2022-10-07T09:33:54.278Z,17.38
2022-10-07T09:36:22.495Z,17.46
2022-10-07T09:38:52.514Z,17.55
2022-10-07T09:41:25.851Z,17.55
2022-10-07T09:44:03.412Z,17.59
2022-10-07T09:46:54.962Z,17.51
2022-10-07T09:49:43.184Z,17.64
2022-10-07T09:52:19.726Z,17.53
2022-10-07T09:54:49.388Z,17.55
2022-10-07T09:57:32.831Z,17.56
2022-10-07T10:00:22.272Z,17.59
2022-10-07T10:02:54.157Z,17.70
2022-10-07T10:05:25.605Z,17.90
2022-10-07T10:08:00.104Z,18.07
2022-10-07T10:10:29.940Z,18.11
2022-10-07T10:12:59.934Z,18.05
2022-10-07T10:15:37.873Z,18.35
2022-10-07T10:18:26.375Z,18.43
2022-10-07T10:20:54.075Z,18.79
2022-10-07T10:23:29.598Z,18.48
2022-10-07T10:26:33.708Z,18.57
2022-10-07T10:29:18.458Z,19.21
2022-10-07T10:32:09.934Z,19.66
2022-10-07T10:34:48.907Z,20.11
2022-10-07T10:37:21.229Z,20.73
2022-10-07T10:40:03.502Z,21.16
2022-10-07T10:42:43.373Z,21.54
2022-10-07T10:45:20.811Z,21.45
2022-10-07T10:48:13.483Z,21.29
2022-10-07T10:50:54.548Z,21.23
2022-10-07T10:53:34.548Z,21.77
2022-10-07T10:56:16.331Z,22.41
2022-10-07T10:58:55.507Z,22.62
2022-10-07T11:01:31.506Z,22.65
2022-10-07T11:04:30.620Z,23.01
2022-10-07T11:07:02.824Z,23.14
2022-10-07T11:09:38.531Z,23.01
2022-10-07T11:12:19.578Z,23.32
2022-10-07T11:14:49.920Z,23.76
2022-10-07T11:17:19.855Z,24.01
2022-10-07T11:20:04.365Z,24.26
2022-10-07T11:22:40.108Z,24.33
2022-10-07T11:25:21.918Z,24.33
2022-10-07T11:27:54.473Z,23.62
2022-10-07T11:30:24.503Z,23.00
2022-10-07T11:32:57.149Z,22.98
2022-10-07T11:35:31.116Z,23.24
2022-10-07T11:38:04.418Z,23.66
2022-10-07T11:40:35.396Z,23.47
2022-10-07T11:43:09.568Z,22.79
2022-10-07T11:45:42.423Z,22.37
2022-10-07T11:48:15.574Z,22.24
2022-10-07T11:50:56.068Z,22.03
2022-10-07T11:53:28.401Z,21.75
2022-10-07T11:56:00.402Z,21.35
2022-10-07T11:58:32.625Z,21.09
2022-10-07T12:01:32.590Z,20.96
2022-10-07T12:04:25.479Z,20.88
2022-10-07T12:07:30.563Z,20.73
2022-10-07T12:10:21.788Z,20.57
2022-10-07T12:12:51.247Z,20.46
2022-10-07T12:15:31.577Z,20.36
2022-10-07T12:18:28.406Z,20.28
2022-10-07T12:21:06.605Z,20.16
2022-10-07T12:23:42.356Z,20.08
2022-10-07T12:26:47.187Z,20.09
2022-10-07T12:29:24.408Z,20.10
2022-10-07T12:31:52.498Z,20.08
2022-10-07T12:34:27.970Z,20.04
2022-10-07T12:37:34.047Z,20.01
2022-10-07T12:40:12.924Z,19.96
2022-10-07T12:42:47.267Z,20.01
2022-10-07T12:45:16.137Z,19.81
2022-10-07T12:47:44.642Z,19.79
2022-10-07T12:50:16.237Z,19.75
2022-10-07T12:52:47.937Z,19.73
2022-10-07T12:55:21.027Z,19.71
2022-10-07T12:57:52.867Z,19.78
2022-10-07T13:00:24.353Z,19.90
2022-10-07T13:03:30.097Z,19.87
2022-10-07T13:06:27.614Z,19.84
2022-10-07T13:09:33.622Z,19.69
2022-10-07T13:12:18.462Z,19.82
2022-10-07T13:14:57.041Z,19.89
2022-10-07T13:17:35.248Z,20.00
2022-10-07T13:20:20.048Z,20.25
2022-10-07T13:22:48.981Z,20.52
2022-10-07T13:25:20.316Z,20.45
2022-10-07T13:27:53.131Z,20.43
2022-10-07T13:30:36.891Z,20.42
2022-10-07T13:33:17.108Z,20.00
2022-10-07T13:35:44.853Z,19.86
2022-10-07T13:38:25.552Z,19.86
2022-10-07T13:40:57.439Z,19.87
2022-10-07T13:43:29.879Z,19.98
2022-10-07T13:45:59.387Z,19.65
2022-10-07T13:48:31.186Z,19.49
2022-10-07T13:51:00.285Z,19.53
2022-10-07T13:53:30.621Z,19.52
2022-10-07T13:56:18.320Z,19.34
2022-10-07T13:58:47.734Z,19.32
2022-10-07T14:01:16.276Z,19.35
2022-10-07T14:04:25.188Z,19.28
2022-10-07T14:07:01.154Z,19.01
2022-10-07T14:09:37.837Z,19.17
2022-10-07T14:12:08.944Z,19.16
2022-10-07T14:14:41.852Z,19.04
2022-10-07T14:17:17.780Z,19.02
2022-10-07T14:19:53.018Z,18.88
2022-10-07T14:22:27.895Z,18.85
2022-10-07T14:24:58.326Z,18.69
2022-10-07T14:27:53.499Z,18.44
2022-10-07T14:30:53.293Z,18.26
2022-10-07T14:33:45.916Z,18.27
2022-10-07T14:36:16.385Z,18.24
2022-10-07T14:38:46.373Z,18.25
2022-10-07T14:41:16.055Z,18.29
2022-10-07T14:43:46.059Z,18.27
2022-10-07T14:46:19.910Z,18.19
2022-10-07T14:48:49.196Z,18.14
2022-10-07T14:51:20.168Z,18.19
2022-10-07T14:53:51.195Z,18.22
2022-10-07T14:56:25.089Z,18.16
2022-10-07T14:58:52.888Z,18.07
2022-10-07T15:01:22.107Z,18.01
2022-10-07T15:03:50.262Z,17.96
2022-10-07T15:06:18.873Z,17.85
2022-10-07T15:08:46.993Z,17.78
2022-10-07T15:11:15.580Z,17.56
2022-10-07T15:13:46.474Z,17.44
2022-10-07T15:16:17.071Z,17.34
2022-10-07T15:18:51.876Z,17.08
2022-10-07T15:21:20.885Z,17.03
2022-10-07T15:23:51.583Z,16.89
2022-10-07T15:26:21.301Z,16.90
2022-10-07T15:28:51.356Z,16.85
2022-10-07T15:31:19.255Z,16.70
2022-10-07T15:33:49.704Z,16.71
2022-10-07T15:36:18.016Z,16.73
2022-10-07T15:38:45.943Z,16.69
2022-10-07T15:41:29.952Z,16.64
2022-10-07T15:43:58.697Z,16.63
2022-10-07T15:46:26.637Z,16.65
2022-10-07T15:48:56.992Z,16.56
2022-10-07T15:51:25.450Z,16.48
2022-10-07T15:53:53.603Z,16.45
2022-10-07T15:56:22.068Z,16.37
2022-10-07T15:58:50.088Z,16.31
2022-10-07T16:01:17.896Z,16.31
2022-10-07T16:03:48.026Z,16.22
2022-10-07T16:06:21.381Z,16.16
2022-10-07T16:08:49.420Z,16.06
2022-10-07T16:11:17.785Z,16.01
2022-10-07T16:13:47.403Z,15.92
2022-10-07T16:16:17.458Z,15.86
2022-10-07T16:18:47.252Z,15.81
2022-10-07T16:21:18.943Z,15.73
2022-10-07T16:23:47.627Z,15.63
2022-10-07T16:26:17.667Z,15.58
2022-10-07T16:29:05.738Z,15.52
2022-10-07T16:31:36.383Z,15.46
2022-10-07T16:34:05.048Z,15.41
2022-10-07T16:36:35.519Z,15.35
2022-10-07T16:39:05.112Z,15.24
2022-10-07T16:41:33.840Z,15.12
2022-10-07T16:44:02.693Z,15.07
2022-10-07T16:46:31.927Z,15.02
2022-10-07T16:49:00.260Z,14.94
2022-10-07T16:51:29.737Z,14.85
2022-10-07T16:54:03.288Z,14.82
2022-10-07T16:56:32.887Z,14.76
2022-10-07T16:59:03.007Z,14.71
2022-10-07T17:01:31.629Z,14.63
2022-10-07T17:04:00.653Z,14.60
2022-10-07T17:06:30.200Z,14.52
2022-10-07T17:09:02.933Z,14.48
2022-10-07T17:11:32.576Z,14.43
2022-10-07T17:14:02.069Z,14.39
2022-10-07T17:16:31.714Z,14.36
2022-10-07T17:18:59.779Z,14.37
2022-10-07T17:21:28.020Z,14.34
2022-10-07T17:23:58.228Z,14.33
2022-10-07T17:26:28.343Z,14.32
2022-10-07T17:29:03.970Z,14.29
2022-10-07T17:31:33.562Z,14.25
2022-10-07T17:34:01.660Z,14.21
2022-10-07T17:36:29.511Z,14.22
2022-10-07T17:38:57.245Z,14.22
2022-10-07T17:41:27.831Z,14.20
2022-10-07T17:43:57.847Z,14.21
2022-10-07T17:46:27.234Z,14.23
2022-10-07T17:48:57.412Z,14.23
2022-10-07T17:51:28.936Z,14.21
2022-10-07T17:53:58.475Z,14.21
2022-10-07T17:56:28.744Z,14.24
2022-10-07T17:58:57.092Z,14.28
2022-10-07T18:01:27.344Z,14.29
2022-10-07T18:03:57.374Z,14.35
2022-10-07T18:06:26.749Z,14.35
2022-10-07T18:08:54.880Z,14.36
2022-10-07T18:11:22.688Z,14.40
2022-10-07T18:14:09.143Z,14.43
2022-10-07T18:16:36.959Z,14.36
2022-10-07T18:19:04.715Z,14.29
2022-10-07T18:21:35.427Z,14.24
2022-10-07T18:24:03.127Z,14.22
2022-10-07T18:26:30.830Z,14.17
2022-10-07T18:29:01.125Z,14.15
2022-10-07T18:31:28.847Z,14.11
2022-10-07T18:33:57.457Z,14.07
2022-10-07T18:36:25.127Z,14.02
2022-10-07T18:38:53.219Z,13.96
2022-10-07T18:41:22.505Z,13.91
2022-10-07T18:43:50.228Z,13.84
2022-10-07T18:46:20.284Z,13.78
2022-10-07T18:48:48.939Z,13.74
2022-10-07T18:51:17.884Z,13.71
2022-10-07T18:53:47.529Z,13.67
2022-10-07T18:56:17.284Z,13.59
2022-10-07T18:58:47.207Z,13.50
2022-10-07T19:01:17.131Z,13.38
2022-10-07T19:03:48.746Z,13.28
2022-10-07T19:06:18.692Z,13.23
2022-10-07T19:08:47.500Z,13.16
2022-10-07T19:11:18.004Z,13.09
2022-10-07T19:13:47.957Z,12.99
2022-10-07T19:16:16.365Z,12.95
2022-10-07T19:18:46.061Z,12.91
2022-10-07T19:21:15.161Z,12.90
2022-10-07T19:23:43.552Z,12.87
2022-10-07T19:26:12.692Z,12.84
2022-10-07T19:28:41.062Z,12.73
2022-10-07T19:31:14.278Z,12.63
2022-10-07T19:33:43.305Z,12.54
2022-10-07T19:36:13.987Z,12.46
2022-10-07T19:38:44.361Z,12.41
2022-10-07T19:41:14.288Z,12.38
2022-10-07T19:43:43.280Z,12.33
2022-10-07T19:46:11.734Z,12.21
2022-10-07T19:48:39.962Z,12.19
2022-10-07T19:51:09.788Z,12.12
2022-10-07T19:53:42.205Z,12.09
2022-10-07T19:56:15.748Z,12.06
2022-10-07T19:58:49.999Z,12.01
2022-10-07T20:01:19.347Z,11.95
2022-10-07T20:03:47.092Z,11.95
2022-10-07T20:06:15.144Z,11.92
2022-10-07T20:08:46.641Z,11.91
2022-10-07T20:11:15.765Z,11.88
2022-10-07T20:13:43.663Z,11.84
2022-10-07T20:16:14.531Z,11.83
2022-10-07T20:18:42.306Z,11.77
2022-10-07T20:21:13.140Z,11.73
2022-10-07T20:23:42.665Z,11.67
2022-10-07T20:26:15.857Z,11.62
2022-10-07T20:28:43.728Z,11.61
2022-10-07T20:31:14.592Z,11.61
2022-10-07T20:33:44.107Z,11.57
2022-10-07T20:36:13.642Z,11.50
2022-10-07T20:38:59.529Z,11.49
2022-10-07T20:41:46.888Z,11.48
2022-10-07T20:44:16.406Z,11.43
2022-10-07T20:46:44.565Z,11.44
2022-10-07T20:49:22.495Z,11.46
2022-10-07T20:51:50.604Z,11.45
2022-10-07T20:54:19.158Z,11.45
2022-10-07T20:56:48.839Z,11.45
2022-10-07T20:59:16.564Z,11.46
2022-10-07T21:01:44.804Z,11.45
2022-10-07T21:04:14.600Z,11.48
2022-10-07T21:06:42.454Z,11.46
2022-10-07T21:09:11.226Z,11.49
2022-10-07T21:11:39.340Z,11.50
2022-10-07T21:14:08.656Z,11.43
2022-10-07T21:16:36.588Z,11.42
2022-10-07T21:19:04.939Z,11.34
2022-10-07T21:21:32.597Z,11.27
2022-10-07T21:24:00.281Z,11.20
2022-10-07T21:26:27.972Z,11.11
2022-10-07T21:28:55.687Z,11.09
2022-10-07T21:31:25.425Z,11.09
2022-10-07T21:33:53.256Z,11.07
2022-10-07T21:36:23.692Z,10.99
2022-10-07T21:38:57.699Z,11.00
2022-10-07T21:41:27.817Z,11.01
2022-10-07T21:43:58.178Z,11.00
2022-10-07T21:46:28.945Z,10.93
2022-10-07T21:48:57.276Z,10.85
2022-10-07T21:51:26.921Z,10.89
2022-10-07T21:53:55.623Z,10.89
2022-10-07T21:56:23.284Z,10.85
2022-10-07T21:58:52.975Z,10.78
2022-10-07T22:01:22.784Z,10.76
2022-10-07T22:03:56.712Z,10.71
2022-10-07T22:06:45.523Z,10.69
2022-10-07T22:09:14.051Z,10.65
2022-10-07T22:11:41.927Z,10.70
2022-10-07T22:14:12.832Z,10.72
2022-10-07T22:16:41.090Z,10.70
2022-10-07T22:19:10.658Z,10.70
2022-10-07T22:21:40.273Z,10.66
2022-10-07T22:24:09.740Z,10.67
2022-10-07T22:26:40.561Z,10.71
2022-10-07T22:29:09.649Z,10.69
2022-10-07T22:31:37.365Z,10.62
2022-10-07T22:34:05.373Z,10.62
2022-10-07T22:36:33.749Z,10.63
2022-10-07T22:39:01.518Z,10.65
2022-10-07T22:41:29.436Z,10.66
2022-10-07T22:43:58.927Z,10.64
2022-10-07T22:46:28.862Z,10.63
2022-10-07T22:48:57.962Z,10.60
2022-10-07T22:51:28.386Z,10.60
2022-10-07T22:53:58.398Z,10.53
2022-10-07T22:56:27.524Z,10.56
2022-10-07T22:58:57.955Z,10.51
2022-10-07T23:01:29.263Z,10.53
2022-10-07T23:03:58.727Z,10.53
2022-10-07T23:06:26.601Z,10.55
2022-10-07T23:08:54.424Z,10.58
2022-10-07T23:11:25.411Z,10.57
2022-10-07T23:13:54.450Z,10.59
2022-10-07T23:16:23.900Z,10.59
2022-10-07T23:18:53.351Z,10.59
2022-10-07T23:21:23.176Z,10.56
2022-10-07T23:23:52.888Z,10.56
2022-10-07T23:26:24.549Z,10.54
2022-10-07T23:28:53.170Z,10.51
2022-10-07T23:31:24.174Z,10.47
2022-10-07T23:33:52.991Z,10.46
2022-10-07T23:36:22.165Z,10.45
2022-10-07T23:38:51.296Z,10.43
2022-10-07T23:41:20.533Z,10.44
2022-10-07T23:43:50.455Z,10.44
2022-10-07T23:46:19.855Z,10.45
2022-10-07T23:48:47.928Z,10.43
2022-10-07T23:51:18.304Z,10.45
2022-10-07T23:53:46.358Z,10.43
2022-10-07T23:56:14.113Z,10.42
2022-10-07T23:58:42.332Z,10.43
